createdAt,value
2022-10-26T00:01:11.430Z,95.05
2022-10-26T00:03:40.929Z,95.04
2022-10-26T00:06:10.765Z,95.04
2022-10-26T00:08:38.019Z,95.04
2022-10-26T00:11:05.161Z,95.02
2022-10-26T00:13:32.692Z,95.14
2022-10-26T00:18:26.908Z,95.13
2022-10-26T00:20:53.448Z,95.40
2022-10-26T00:23:19.944Z,95.30
2022-10-26T00:25:54.727Z,95.41
2022-10-26T00:28:21.354Z,95.48
2022-10-26T00:30:47.861Z,95.54
2022-10-26T00:33:14.707Z,95.64
2022-10-26T00:35:45.865Z,95.62
2022-10-26T00:38:13.284Z,95.96
2022-10-26T00:40:39.819Z,95.15
2022-10-26T00:43:15.848Z,95.71
2022-10-26T00:45:43.777Z,95.41
2022-10-26T00:48:17.642Z,95.42
2022-10-26T00:50:47.425Z,95.51
2022-10-26T00:53:14.152Z,95.86
2022-10-26T00:55:46.000Z,96.16
2022-10-26T00:58:13.397Z,96.23
2022-10-26T01:00:41.642Z,96.26
2022-10-26T01:03:09.446Z,96.04
2022-10-26T01:05:42.363Z,95.83
2022-10-26T01:08:09.554Z,96.33
2022-10-26T01:10:39.182Z,95.44
2022-10-26T01:13:06.627Z,95.70
2022-10-26T01:16:09.758Z,95.38
2022-10-26T01:19:00.114Z,96.35
2022-10-26T01:21:38.796Z,95.83
2022-10-26T01:24:43.221Z,96.01
2022-10-26T01:27:22.168Z,95.77
2022-10-26T01:30:02.455Z,95.96
2022-10-26T01:32:45.073Z,95.80
2022-10-26T01:35:19.995Z,96.10
2022-10-26T01:37:56.619Z,96.02
2022-10-26T01:40:34.494Z,96.64
2022-10-26T01:43:05.598Z,96.38
2022-10-26T01:45:33.847Z,96.80
2022-10-26T01:48:03.514Z,97.19
2022-10-26T01:50:31.730Z,96.94
2022-10-26T01:52:58.619Z,96.06
2022-10-26T01:55:43.905Z,96.15
2022-10-26T01:58:23.775Z,95.91
2022-10-26T02:00:58.622Z,96.64
2022-10-26T02:03:38.855Z,96.42
2022-10-26T02:06:28.681Z,96.16
2022-10-26T02:09:02.536Z,96.77
2022-10-26T02:11:42.956Z,96.64
2022-10-26T02:14:28.459Z,96.19
2022-10-26T02:16:58.433Z,97.08
2022-10-26T02:19:32.198Z,96.88
2022-10-26T02:22:24.648Z,96.27
2022-10-26T02:24:53.783Z,96.30
2022-10-26T02:27:26.164Z,96.33
2022-10-26T02:29:56.443Z,96.70
2022-10-26T02:32:27.114Z,95.88
2022-10-26T02:34:56.576Z,95.67
2022-10-26T02:37:24.558Z,95.97
2022-10-26T02:39:52.700Z,95.83
2022-10-26T02:42:19.912Z,95.74
2022-10-26T02:45:03.034Z,95.70
2022-10-26T02:47:30.112Z,95.93
2022-10-26T02:49:56.678Z,95.47
2022-10-26T02:52:31.744Z,95.64
2022-10-26T02:55:11.257Z,95.09
2022-10-26T02:57:44.875Z,95.13
2022-10-26T03:00:14.862Z,95.57
2022-10-26T03:02:48.463Z,95.10
2022-10-26T03:05:25.112Z,94.96
2022-10-26T03:07:51.887Z,95.18
2022-10-26T03:10:18.555Z,95.09
2022-10-26T03:12:45.359Z,95.30
2022-10-26T03:15:12.211Z,95.60
2022-10-26T03:17:38.830Z,95.09
2022-10-26T03:20:05.860Z,95.21
2022-10-26T03:22:33.431Z,95.53
2022-10-26T03:25:00.078Z,95.46
2022-10-26T03:27:27.164Z,95.44
2022-10-26T03:29:54.000Z,95.44
2022-10-26T03:32:20.623Z,95.30
2022-10-26T03:34:47.082Z,95.29
2022-10-26T03:37:14.168Z,95.51
2022-10-26T03:39:40.643Z,95.46
2022-10-26T03:42:07.101Z,95.53
2022-10-26T03:44:33.691Z,95.52
2022-10-26T03:47:00.168Z,95.05
2022-10-26T03:49:26.645Z,95.33
2022-10-26T03:51:53.114Z,95.65
2022-10-26T03:54:19.623Z,95.73
2022-10-26T03:56:46.058Z,95.27
2022-10-26T03:59:12.597Z,95.76
2022-10-26T04:01:40.210Z,95.38
2022-10-26T04:04:06.901Z,95.75
2022-10-26T04:06:33.529Z,95.90
2022-10-26T04:09:02.476Z,96.44
2022-10-26T04:11:29.746Z,96.15
2022-10-26T04:13:59.724Z,96.31
2022-10-26T04:16:30.964Z,96.47
2022-10-26T04:19:00.058Z,96.59
2022-10-26T04:21:26.636Z,96.02
2022-10-26T04:23:53.157Z,96.40
2022-10-26T04:26:19.702Z,96.63
2022-10-26T04:28:46.309Z,96.50
2022-10-26T04:31:12.768Z,97.10
2022-10-26T04:33:39.286Z,96.96
2022-10-26T04:36:06.147Z,97.55
2022-10-26T04:38:32.642Z,96.87
2022-10-26T04:40:59.115Z,97.19
2022-10-26T04:43:25.570Z,97.10
2022-10-26T04:45:56.358Z,97.15
2022-10-26T04:48:22.986Z,97.23
2022-10-26T04:50:49.472Z,97.04
2022-10-26T04:53:16.288Z,97.45
2022-10-26T04:55:42.846Z,97.73
2022-10-26T04:58:09.345Z,97.75
2022-10-26T05:00:35.819Z,98.06
2022-10-26T05:03:04.119Z,97.81
2022-10-26T05:05:34.226Z,97.73
2022-10-26T05:08:01.098Z,97.79
2022-10-26T05:10:28.303Z,98.24
2022-10-26T05:12:57.046Z,98.30
2022-10-26T05:15:23.711Z,98.14
2022-10-26T05:18:01.572Z,98.07
2022-10-26T05:20:31.012Z,98.15
2022-10-26T05:22:59.202Z,98.48
2022-10-26T05:25:26.118Z,98.02
2022-10-26T05:27:52.593Z,98.38
2022-10-26T05:30:19.064Z,98.78
2022-10-26T05:32:45.813Z,98.83
2022-10-26T05:35:12.458Z,98.94
2022-10-26T05:37:38.916Z,98.68
2022-10-26T05:40:06.019Z,98.72
2022-10-26T05:42:32.484Z,98.27
2022-10-26T05:44:58.934Z,98.66
2022-10-26T05:47:25.485Z,98.22
2022-10-26T05:49:51.929Z,98.15
2022-10-26T05:52:18.407Z,98.17
2022-10-26T05:54:44.867Z,98.00
2022-10-26T05:57:12.803Z,98.25
2022-10-26T05:59:39.741Z,97.93
2022-10-26T06:02:52.183Z,98.12
2022-10-26T06:05:26.381Z,98.76
2022-10-26T06:07:53.275Z,98.70
2022-10-26T06:10:20.563Z,98.33
2022-10-26T06:12:47.535Z,98.33
2022-10-26T06:15:20.490Z,98.17
2022-10-26T06:18:15.967Z,98.42
2022-10-26T06:20:54.472Z,98.74
2022-10-26T06:23:40.032Z,98.35
2022-10-26T06:26:18.613Z,98.26
2022-10-26T06:29:23.866Z,98.67
2022-10-26T06:31:50.439Z,98.39
2022-10-26T06:34:28.000Z,99.05
2022-10-26T06:36:57.617Z,98.83
2022-10-26T06:39:25.991Z,98.67
2022-10-26T06:41:52.679Z,98.99
2022-10-26T06:44:23.844Z,99.14
2022-10-26T06:47:07.509Z,98.44
2022-10-26T06:49:42.831Z,98.14
2022-10-26T06:52:18.154Z,98.67
2022-10-26T06:54:47.883Z,98.61
2022-10-26T06:57:15.986Z,98.73
2022-10-26T06:59:53.123Z,98.77
2022-10-26T07:02:20.782Z,98.54
2022-10-26T07:04:47.952Z,98.99
2022-10-26T07:07:17.449Z,98.65
2022-10-26T07:09:43.885Z,98.84
2022-10-26T07:12:10.354Z,98.79
2022-10-26T07:14:36.883Z,99.02
2022-10-26T07:17:03.570Z,99.06
2022-10-26T07:19:30.125Z,98.23
2022-10-26T07:21:59.878Z,99.04
2022-10-26T07:24:26.493Z,98.43
2022-10-26T07:26:56.525Z,98.80
2022-10-26T07:29:23.660Z,98.89
2022-10-26T07:31:50.732Z,99.20
2022-10-26T07:34:17.302Z,99.36
2022-10-26T07:36:44.242Z,99.20
2022-10-26T07:39:10.719Z,99.83
2022-10-26T07:41:37.488Z,99.46
2022-10-26T07:44:04.130Z,99.50
2022-10-26T07:46:31.280Z,99.58
2022-10-26T07:48:57.738Z,99.40
2022-10-26T07:51:24.267Z,99.97
2022-10-26T07:53:50.783Z,99.96
2022-10-26T07:56:17.343Z,100.00
2022-10-26T07:58:43.847Z,99.64
2022-10-26T08:01:13.445Z,100.00
2022-10-26T08:03:40.589Z,100.00
2022-10-26T08:06:09.479Z,100.00
2022-10-26T08:08:36.551Z,100.00
2022-10-26T08:11:03.774Z,100.00
2022-10-26T08:13:30.652Z,100.00
2022-10-26T08:16:03.457Z,100.00
2022-10-26T08:18:30.098Z,100.00
2022-10-26T08:21:11.519Z,100.00
2022-10-26T08:23:38.460Z,100.00
2022-10-26T08:26:05.236Z,100.00
2022-10-26T08:28:32.025Z,100.00
2022-10-26T08:30:59.575Z,100.00
2022-10-26T08:33:26.209Z,100.00
2022-10-26T08:36:00.824Z,100.00
2022-10-26T08:38:27.853Z,100.00
2022-10-26T08:40:56.588Z,100.00
2022-10-26T08:43:30.936Z,100.00
2022-10-26T08:46:12.930Z,100.00
2022-10-26T08:48:51.088Z,100.00
2022-10-26T08:51:25.476Z,100.00
2022-10-26T08:53:57.033Z,100.00
2022-10-26T08:56:29.173Z,100.00
2022-10-26T08:59:06.958Z,100.00
2022-10-26T09:01:34.318Z,100.00
2022-10-26T09:04:04.015Z,100.00
2022-10-26T09:06:46.591Z,100.00
2022-10-26T09:09:24.410Z,100.00
2022-10-26T09:12:23.808Z,100.00
2022-10-26T09:15:02.295Z,100.00
2022-10-26T09:17:59.146Z,100.00
2022-10-26T09:21:12.926Z,100.00
2022-10-26T09:24:03.990Z,100.00
2022-10-26T09:26:51.675Z,100.00
2022-10-26T09:29:19.368Z,100.00
2022-10-26T09:31:50.915Z,100.00
2022-10-26T09:34:30.360Z,100.00
2022-10-26T09:36:57.141Z,100.00
2022-10-26T09:39:29.506Z,100.00
2022-10-26T09:42:05.420Z,100.00
2022-10-26T09:44:39.541Z,100.00
2022-10-26T09:47:27.225Z,100.00
2022-10-26T09:49:59.109Z,100.00
2022-10-26T09:52:25.630Z,100.00
2022-10-26T09:54:52.161Z,100.00
2022-10-26T09:57:20.326Z,100.00
2022-10-26T09:59:52.652Z,100.00
2022-10-26T10:02:38.750Z,100.00
2022-10-26T10:05:53.270Z,100.00
2022-10-26T10:08:27.632Z,100.00
2022-10-26T10:11:29.627Z,100.00
2022-10-26T10:14:09.700Z,100.00
2022-10-26T10:16:36.626Z,100.00
2022-10-26T10:19:03.173Z,100.00
2022-10-26T10:21:38.619Z,100.00
2022-10-26T10:24:22.314Z,100.00
2022-10-26T10:27:17.856Z,100.00
2022-10-26T10:29:47.485Z,100.00
2022-10-26T10:32:27.005Z,100.00
2022-10-26T10:34:57.968Z,100.00
2022-10-26T10:37:30.440Z,100.00
2022-10-26T10:40:08.756Z,100.00
2022-10-26T10:42:38.765Z,100.00
2022-10-26T10:45:06.919Z,100.00
2022-10-26T10:47:36.583Z,100.00
2022-10-26T10:50:33.497Z,100.00
2022-10-26T10:53:35.926Z,100.00
2022-10-26T10:56:23.708Z,100.00
2022-10-26T10:59:05.612Z,100.00
2022-10-26T11:01:46.194Z,100.00
2022-10-26T11:04:21.422Z,100.00
2022-10-26T11:06:49.601Z,100.00
2022-10-26T11:09:24.250Z,100.00
2022-10-26T11:11:53.491Z,100.00
2022-10-26T11:14:28.093Z,100.00
2022-10-26T11:17:20.205Z,100.00
2022-10-26T11:19:54.160Z,100.00
2022-10-26T11:22:27.941Z,100.00
2022-10-26T11:25:11.873Z,100.00
2022-10-26T11:27:51.141Z,100.00
2022-10-26T11:30:30.686Z,100.00
2022-10-26T11:33:03.414Z,100.00
2022-10-26T11:35:44.040Z,100.00
2022-10-26T11:38:20.746Z,100.00
2022-10-26T11:41:24.623Z,100.00
2022-10-26T11:43:57.377Z,100.00
2022-10-26T11:46:39.862Z,100.00
2022-10-26T11:49:26.667Z,100.00
2022-10-26T11:52:02.322Z,100.00
2022-10-26T11:54:37.061Z,100.00
2022-10-26T11:57:05.305Z,100.00
2022-10-26T11:59:37.686Z,100.00
2022-10-26T12:02:16.384Z,100.00
2022-10-26T12:04:47.444Z,100.00
2022-10-26T12:07:24.227Z,100.00
2022-10-26T12:09:51.414Z,100.00
2022-10-26T12:12:31.635Z,100.00
2022-10-26T12:15:35.240Z,100.00
2022-10-26T12:18:55.135Z,100.00
2022-10-26T12:21:27.391Z,100.00
2022-10-26T12:24:02.138Z,100.00
2022-10-26T12:26:28.721Z,100.00
2022-10-26T12:29:04.300Z,100.00
2022-10-26T12:31:36.789Z,99.84
2022-10-26T12:34:17.062Z,99.60
2022-10-26T12:37:06.891Z,98.33
2022-10-26T12:39:42.987Z,98.18
2022-10-26T12:42:28.050Z,77.76
2022-10-26T12:44:54.544Z,73.85
2022-10-26T12:47:30.257Z,72.29
2022-10-26T12:50:20.022Z,72.00
2022-10-26T12:52:54.037Z,70.92
2022-10-26T12:55:46.020Z,71.09
2022-10-26T12:58:30.919Z,72.00
2022-10-26T13:01:00.408Z,71.16
2022-10-26T13:03:45.642Z,71.30
2022-10-26T13:06:15.240Z,69.80
2022-10-26T13:08:45.371Z,70.81
2022-10-26T13:11:31.631Z,69.94
2022-10-26T13:14:02.774Z,69.86
2022-10-26T13:16:30.315Z,69.03
2022-10-26T13:18:58.079Z,68.88
2022-10-26T13:21:26.073Z,69.09
2022-10-26T13:24:01.526Z,70.36
2022-10-26T13:26:30.062Z,70.65
2022-10-26T13:29:00.279Z,70.44
2022-10-26T13:31:31.317Z,70.40
2022-10-26T13:34:01.672Z,69.88
2022-10-26T13:36:33.831Z,69.73
2022-10-26T13:39:09.368Z,69.64
2022-10-26T13:41:43.417Z,70.60
2022-10-26T13:44:44.663Z,71.00
2022-10-26T13:47:22.001Z,70.20
2022-10-26T13:49:52.995Z,69.95
2022-10-26T13:52:28.614Z,69.69
2022-10-26T13:55:00.067Z,69.85
2022-10-26T13:57:36.006Z,68.41
2022-10-26T14:00:15.749Z,69.24
2022-10-26T14:02:43.677Z,69.33
2022-10-26T14:05:15.020Z,69.71
2022-10-26T14:07:56.677Z,70.17
2022-10-26T14:10:45.771Z,70.03
2022-10-26T14:13:18.241Z,69.15
2022-10-26T14:15:46.130Z,68.62
2022-10-26T14:18:20.468Z,69.13
2022-10-26T14:20:58.295Z,69.29
2022-10-26T14:23:38.174Z,69.48
2022-10-26T14:26:05.339Z,70.12
2022-10-26T14:28:40.149Z,69.99
2022-10-26T14:31:26.996Z,71.46
2022-10-26T14:33:55.333Z,70.39
2022-10-26T14:36:32.231Z,70.93
2022-10-26T14:39:03.643Z,70.34
2022-10-26T14:41:30.997Z,71.13
2022-10-26T14:44:00.143Z,70.83
2022-10-26T14:46:29.048Z,71.38
2022-10-26T14:48:58.246Z,71.81
2022-10-26T14:51:30.457Z,72.08
2022-10-26T14:54:01.550Z,71.23
2022-10-26T14:56:40.250Z,73.97
2022-10-26T14:59:31.433Z,72.11
2022-10-26T15:01:58.066Z,71.98
2022-10-26T15:04:41.129Z,72.98
2022-10-26T15:07:07.955Z,72.10
2022-10-26T15:09:53.423Z,72.44
2022-10-26T15:12:21.339Z,73.27
2022-10-26T15:14:48.652Z,72.54
2022-10-26T15:17:24.698Z,72.40
2022-10-26T15:19:52.302Z,72.30
2022-10-26T15:22:31.162Z,71.92
2022-10-26T15:25:03.105Z,72.19
2022-10-26T15:27:29.945Z,72.48
2022-10-26T15:30:26.414Z,74.37
2022-10-26T15:32:54.919Z,74.38
2022-10-26T15:35:30.280Z,75.48
2022-10-26T15:37:58.369Z,75.26
2022-10-26T15:42:59.793Z,76.07
2022-10-26T15:45:30.063Z,76.15
2022-10-26T15:47:59.145Z,76.78
2022-10-26T15:50:29.172Z,77.06
2022-10-26T15:53:06.313Z,77.72
2022-10-26T15:55:32.887Z,77.18
2022-10-26T15:57:59.442Z,77.38
2022-10-26T16:00:25.907Z,77.55
2022-10-26T16:02:52.456Z,77.82
2022-10-26T16:05:19.101Z,77.93
2022-10-26T16:07:48.408Z,78.34
2022-10-26T16:10:22.510Z,77.78
2022-10-26T16:12:50.379Z,78.49
2022-10-26T16:15:22.754Z,78.87
2022-10-26T16:17:50.512Z,78.56
2022-10-26T16:20:23.551Z,79.14
2022-10-26T16:22:52.655Z,79.32
2022-10-26T16:25:22.949Z,78.91
2022-10-26T16:27:50.237Z,79.48
2022-10-26T16:30:17.766Z,79.20
2022-10-26T16:32:44.601Z,79.44
2022-10-26T16:35:12.105Z,79.42
2022-10-26T16:37:39.278Z,79.94
2022-10-26T16:40:07.155Z,79.78
2022-10-26T16:42:33.995Z,80.09
2022-10-26T16:45:02.826Z,80.52
2022-10-26T16:47:35.532Z,80.43
2022-10-26T16:50:03.125Z,80.85
2022-10-26T16:52:29.664Z,80.60
2022-10-26T16:54:56.195Z,81.21
2022-10-26T16:57:22.777Z,80.64
2022-10-26T16:59:49.282Z,81.10
2022-10-26T17:02:15.944Z,81.03
2022-10-26T17:04:42.601Z,80.94
2022-10-26T17:07:10.531Z,81.32
2022-10-26T17:09:37.018Z,81.25
2022-10-26T17:12:04.248Z,81.64
2022-10-26T17:14:30.881Z,81.59
2022-10-26T17:16:57.622Z,81.70
2022-10-26T17:19:24.535Z,81.94
2022-10-26T17:21:51.012Z,81.58
2022-10-26T17:24:18.938Z,81.63
2022-10-26T17:26:45.536Z,81.96
2022-10-26T17:29:18.387Z,82.20
2022-10-26T17:31:44.872Z,82.23
2022-10-26T17:34:11.569Z,81.96
2022-10-26T17:36:38.140Z,81.80
2022-10-26T17:39:04.885Z,82.30
2022-10-26T17:41:31.372Z,82.37
2022-10-26T17:43:57.940Z,82.27
2022-10-26T17:46:26.170Z,82.40
2022-10-26T17:49:00.628Z,82.40
2022-10-26T17:51:29.084Z,82.17
2022-10-26T17:53:55.991Z,81.83
2022-10-26T17:56:24.701Z,82.25
2022-10-26T17:58:55.810Z,82.43
2022-10-26T18:01:22.696Z,82.27
2022-10-26T18:03:49.381Z,82.60
2022-10-26T18:06:17.274Z,82.42
2022-10-26T18:08:45.007Z,82.72
2022-10-26T18:11:26.137Z,82.63
2022-10-26T18:13:57.126Z,82.80
2022-10-26T18:16:25.495Z,82.86
2022-10-26T18:19:00.286Z,82.76
2022-10-26T18:21:28.777Z,82.57
2022-10-26T18:23:55.591Z,82.73
2022-10-26T18:26:24.581Z,82.84
2022-10-26T18:28:51.158Z,82.74
2022-10-26T18:31:20.253Z,82.99
2022-10-26T18:33:47.461Z,83.54
2022-10-26T18:36:16.381Z,83.25
2022-10-26T18:38:43.670Z,83.04
2022-10-26T18:41:11.686Z,83.10
2022-10-26T18:43:43.019Z,83.51
2022-10-26T18:46:15.161Z,83.31
2022-10-26T18:48:44.704Z,83.47
2022-10-26T18:51:16.156Z,84.02
2022-10-26T18:53:43.697Z,83.68
2022-10-26T18:56:12.980Z,83.74
2022-10-26T18:58:42.322Z,83.97
2022-10-26T19:01:22.597Z,83.85
2022-10-26T19:04:04.165Z,84.02
2022-10-26T19:06:33.907Z,83.71
2022-10-26T19:09:01.129Z,84.07
2022-10-26T19:11:30.039Z,83.74
2022-10-26T19:13:57.444Z,84.02
2022-10-26T19:16:44.739Z,84.26
2022-10-26T19:19:12.391Z,83.80
2022-10-26T19:21:38.931Z,84.16
2022-10-26T19:24:14.926Z,84.04
2022-10-26T19:26:43.769Z,83.95
2022-10-26T19:29:15.960Z,83.80
2022-10-26T19:31:44.600Z,84.33
2022-10-26T19:34:12.307Z,84.16
2022-10-26T19:36:39.688Z,84.27
2022-10-26T19:39:06.869Z,84.28
2022-10-26T19:41:33.419Z,84.38
2022-10-26T19:46:32.818Z,84.51
2022-10-26T19:49:01.313Z,84.04
2022-10-26T19:51:30.385Z,84.15
2022-10-26T19:54:03.139Z,84.41
2022-10-26T19:56:31.161Z,84.31
2022-10-26T19:58:57.741Z,84.34
2022-10-26T20:01:24.729Z,84.70
2022-10-26T20:03:51.739Z,84.31
2022-10-26T20:06:18.685Z,84.41
2022-10-26T20:08:47.877Z,84.43
2022-10-26T20:11:16.716Z,84.76
2022-10-26T20:13:44.971Z,84.34
2022-10-26T20:16:12.232Z,84.86
2022-10-26T20:18:43.924Z,84.59
2022-10-26T20:21:14.764Z,84.82
2022-10-26T20:23:42.511Z,84.64
2022-10-26T20:26:11.746Z,84.56
2022-10-26T20:28:45.230Z,84.74
2022-10-26T20:31:12.571Z,84.87
2022-10-26T20:33:39.097Z,84.75
2022-10-26T20:36:05.847Z,84.71
2022-10-26T20:38:32.691Z,84.95
2022-10-26T20:41:00.262Z,84.74
2022-10-26T20:43:28.014Z,84.86
2022-10-26T20:45:56.136Z,85.04
2022-10-26T20:48:23.931Z,84.83
2022-10-26T20:50:58.391Z,85.03
2022-10-26T20:53:40.287Z,85.01
2022-10-26T20:56:10.694Z,84.64
2022-10-26T20:59:30.534Z,84.95
2022-10-26T21:01:57.085Z,85.25
2022-10-26T21:04:23.582Z,84.96
2022-10-26T21:06:50.045Z,85.05
2022-10-26T21:09:16.635Z,85.17
2022-10-26T21:11:43.178Z,85.36
2022-10-26T21:14:09.675Z,84.99
2022-10-26T21:16:36.261Z,85.12
2022-10-26T21:19:05.010Z,85.31
2022-10-26T21:21:31.601Z,85.51
2022-10-26T21:23:58.078Z,85.33
2022-10-26T21:26:24.563Z,85.25
2022-10-26T21:28:51.067Z,85.59
2022-10-26T21:31:18.862Z,85.56
2022-10-26T21:33:46.180Z,85.72
2022-10-26T21:36:12.987Z,85.63
2022-10-26T21:38:42.043Z,85.82
2022-10-26T21:41:11.421Z,85.58
2022-10-26T21:43:39.489Z,85.75
2022-10-26T21:46:07.287Z,85.61
2022-10-26T21:48:35.033Z,85.85
2022-10-26T21:51:03.389Z,85.59
2022-10-26T21:53:29.906Z,86.11
2022-10-26T21:56:05.906Z,85.73
2022-10-26T21:58:32.470Z,86.16
2022-10-26T22:01:10.778Z,85.86
2022-10-26T22:03:38.530Z,85.99
2022-10-26T22:06:06.878Z,86.09
2022-10-26T22:08:33.641Z,85.89
2022-10-26T22:11:13.095Z,86.01
2022-10-26T22:13:43.203Z,86.14
2022-10-26T22:16:15.660Z,86.32
2022-10-26T22:18:44.225Z,86.18
2022-10-26T22:21:12.072Z,86.31
2022-10-26T22:23:40.164Z,86.22
2022-10-26T22:26:12.897Z,86.36
2022-10-26T22:28:42.757Z,86.64
2022-10-26T22:31:14.913Z,86.51
2022-10-26T22:33:41.874Z,86.42
2022-10-26T22:36:13.433Z,86.96
2022-10-26T22:38:40.807Z,87.12
2022-10-26T22:41:08.128Z,86.87
2022-10-26T22:43:34.686Z,87.20
2022-10-26T22:46:06.585Z,87.94
2022-10-26T22:48:34.095Z,87.51
2022-10-26T22:51:05.765Z,87.23
2022-10-26T22:53:32.470Z,86.88
2022-10-26T22:55:59.180Z,87.32
2022-10-26T22:58:25.674Z,87.54
2022-10-26T23:00:52.297Z,87.54
2022-10-26T23:03:18.847Z,87.52
2022-10-26T23:05:48.108Z,87.24
2022-10-26T23:08:14.878Z,87.64
2022-10-26T23:10:41.463Z,88.34
2022-10-26T23:13:07.987Z,88.18
2022-10-26T23:15:34.540Z,87.78
2022-10-26T23:18:01.082Z,87.77
2022-10-26T23:20:27.624Z,87.71
2022-10-26T23:22:54.302Z,87.98
2022-10-26T23:25:20.825Z,87.80
2022-10-26T23:27:47.348Z,87.59
2022-10-26T23:30:13.948Z,88.17
2022-10-26T23:32:40.597Z,87.91
2022-10-26T23:35:07.405Z,87.92
2022-10-26T23:37:33.928Z,87.92
2022-10-26T23:40:00.442Z,88.30
2022-10-26T23:42:26.921Z,87.96
2022-10-26T23:44:53.490Z,88.01
2022-10-26T23:47:20.002Z,88.64
2022-10-26T23:49:49.089Z,88.02
2022-10-26T23:52:16.174Z,87.94
2022-10-26T23:54:42.686Z,88.44
2022-10-26T23:57:09.218Z,88.26
2022-10-26T23:59:35.694Z,88.83
